メインページ
METAR-TAF:

METAR-TAF

空港 :

北九州, 日本

北九州空港

緯度: 33-50N, 経度: 130-57E, 海抜: 3m

現時点の気象観測

当レポートは42分前の23:00(UTC)に作成
の風 1kt
気温 6°C
湿度 81%
気圧 1022 hPa
視程10km以上
高度3000ftの雲はほとんどない
高度12000ftの千切れ雲あり

METAR: RJFR 182300Z 17001KT 9999 FEW030 BKN120 06/03 Q1022

時間: 08:42 (23:42 UTC)

予報

当レポートは31分前の23:11(UTC)に作成
予報は19日の 00時(UTC)から 20日の 06時(UTC)まで有効
の風 3kt
視程10km以上
高度2500ftの雲はほとんどない
高度5000ftの千切れ雲あり
19日の 00時(UTC)から 19日の 02時(UTC)まで徐々に
北/北東の風 5kt
20日の 03時(UTC)から 20日の 06時(UTC)まで徐々に
南/南東の風 5kt

TAF: RJFR 182311Z 1900/2006 18003KT 9999 FEW025 BKN050 BECMG 1900/1902 03005KT BECMG 2003/2006 15005KT

4,000以上の空港の気象観測と天気予報(METAR報とTAF報)

利用可能な観測所は地図上に黄色い丸と赤い丸で示す。

丸の上にカーソルを重ねると観測所名を参照できる。

次にクリックすると気象観測と天気予報を参照できる。

マップの切り替え:黒色「×」印の緑ボタンをクリックして拡大、「-」印の緑ボタンをクリックして縮小、緑色の三角印をクリックして隣りの地図に切り替え


METAR-TAF: